createdAt,value
2023-05-03T00:00:12.339Z,52.50
2023-05-03T00:01:33.853Z,52.62
2023-05-03T00:02:57.616Z,52.27
2023-05-03T00:04:19.117Z,52.12
2023-05-03T00:05:41.515Z,51.94
2023-05-03T00:07:04.088Z,51.99
2023-05-03T00:08:27.744Z,51.84
2023-05-03T00:09:51.878Z,51.82
2023-05-03T00:11:13.285Z,51.83
2023-05-03T00:12:38.830Z,51.65
2023-05-03T00:14:01.283Z,51.40
2023-05-03T00:15:26.741Z,51.56
2023-05-03T00:17:10.245Z,51.37
2023-05-03T00:18:32.552Z,51.29
2023-05-03T00:19:56.344Z,51.12
2023-05-03T00:21:20.161Z,50.91
2023-05-03T00:23:11.381Z,51.07
2023-05-03T00:24:41.449Z,50.94
2023-05-03T00:26:03.657Z,50.88
2023-05-03T00:27:28.542Z,50.42
2023-05-03T00:28:50.975Z,50.53
2023-05-03T00:30:15.695Z,50.28
2023-05-03T00:31:46.467Z,50.47
2023-05-03T00:33:32.887Z,50.42
2023-05-03T00:34:58.490Z,50.17
2023-05-03T00:36:20.615Z,50.13
2023-05-03T00:37:44.678Z,50.09
2023-05-03T00:39:07.416Z,49.95
2023-05-03T00:40:38.587Z,49.86
2023-05-03T00:42:00.443Z,49.83
2023-05-03T00:43:23.203Z,49.78
2023-05-03T00:44:48.873Z,50.01
2023-05-03T00:46:17.402Z,50.04
2023-05-03T00:47:39.828Z,49.88
2023-05-03T00:49:04.429Z,49.88
2023-05-03T00:50:34.735Z,49.99
2023-05-03T00:52:07.968Z,49.86
2023-05-03T00:53:32.492Z,50.04
2023-05-03T00:54:55.154Z,50.00
2023-05-03T00:56:21.465Z,50.08
2023-05-03T00:57:48.121Z,50.03
2023-05-03T00:59:16.204Z,49.95
2023-05-03T01:00:47.708Z,49.63
2023-05-03T01:02:28.702Z,49.77
2023-05-03T01:04:16.309Z,49.76
2023-05-03T01:06:01.322Z,49.82
2023-05-03T01:07:38.141Z,49.87
2023-05-03T01:09:07.018Z,49.93
2023-05-03T01:14:45.311Z,49.63
2023-05-03T01:16:12.775Z,49.61
2023-05-03T01:17:41.173Z,49.54
2023-05-03T01:19:27.120Z,49.44
2023-05-03T01:20:52.090Z,49.42
2023-05-03T01:22:23.802Z,49.26
2023-05-03T01:23:58.343Z,49.38
2023-05-03T01:25:21.630Z,49.35
2023-05-03T01:26:44.326Z,49.50
2023-05-03T01:28:05.886Z,49.47
2023-05-03T01:29:29.744Z,49.33
2023-05-03T01:30:56.782Z,49.34
2023-05-03T01:32:30.590Z,49.19
2023-05-03T01:34:04.179Z,49.25
2023-05-03T01:35:33.982Z,49.10
2023-05-03T01:37:03.481Z,48.95
2023-05-03T01:38:25.947Z,48.77
2023-05-03T01:39:55.490Z,48.83
2023-05-03T01:41:24.084Z,48.74
2023-05-03T01:42:47.739Z,48.66
2023-05-03T01:44:12.118Z,48.61
2023-05-03T01:45:34.339Z,48.48
2023-05-03T01:46:59.041Z,48.57
2023-05-03T01:48:21.870Z,48.51
2023-05-03T01:49:43.025Z,48.40
2023-05-03T01:51:06.079Z,48.36
2023-05-03T01:52:28.856Z,48.16
2023-05-03T01:53:50.074Z,48.40
2023-05-03T01:55:12.558Z,48.32
2023-05-03T01:56:53.044Z,48.46
2023-05-03T01:58:18.137Z,48.00
2023-05-03T01:59:40.714Z,48.38
2023-05-03T02:01:08.731Z,48.18
2023-05-03T02:02:34.396Z,48.17
2023-05-03T02:03:55.714Z,48.25
2023-05-03T02:05:18.028Z,48.41
2023-05-03T02:06:41.040Z,48.27
2023-05-03T02:08:02.231Z,48.47
2023-05-03T02:09:25.721Z,48.62
2023-05-03T02:10:47.927Z,48.36
2023-05-03T02:12:16.010Z,48.49
2023-05-03T02:13:39.018Z,48.47
2023-05-03T02:15:01.425Z,48.68
2023-05-03T02:16:22.739Z,48.72
2023-05-03T02:17:47.512Z,48.73
2023-05-03T02:19:11.262Z,48.92
2023-05-03T02:20:40.374Z,49.09
2023-05-03T02:22:01.956Z,49.29
2023-05-03T02:23:24.187Z,48.90
2023-05-03T02:24:47.138Z,48.98
2023-05-03T02:26:10.075Z,48.77
2023-05-03T02:27:32.636Z,48.91
2023-05-03T02:28:59.716Z,48.57
2023-05-03T02:30:22.501Z,48.44
2023-05-03T02:31:44.820Z,48.39
2023-05-03T02:33:06.011Z,48.26
2023-05-03T02:34:33.403Z,48.17
2023-05-03T02:35:55.743Z,48.05
2023-05-03T02:37:17.006Z,47.78
2023-05-03T02:38:40.306Z,47.83
2023-05-03T02:40:02.666Z,47.75
2023-05-03T02:41:25.448Z,47.80
2023-05-03T02:42:48.988Z,47.63
2023-05-03T02:44:18.089Z,47.77
2023-05-03T02:45:40.246Z,47.46
2023-05-03T02:47:04.985Z,47.33
2023-05-03T02:48:27.176Z,47.31
2023-05-03T02:49:49.717Z,47.39
2023-05-03T02:51:12.025Z,47.72
2023-05-03T02:52:33.030Z,47.49
2023-05-03T02:53:55.580Z,47.36
2023-05-03T02:55:17.575Z,47.49
2023-05-03T02:56:43.752Z,47.71
2023-05-03T02:58:13.525Z,47.94
2023-05-03T02:59:34.765Z,47.81
2023-05-03T03:00:57.563Z,47.77
2023-05-03T03:02:26.474Z,47.88
2023-05-03T03:03:49.883Z,47.96
2023-05-03T03:05:12.480Z,48.08
2023-05-03T03:06:36.125Z,47.86
2023-05-03T03:07:58.783Z,48.27
2023-05-03T03:09:21.632Z,48.28
2023-05-03T03:10:44.363Z,48.38
2023-05-03T03:12:06.747Z,48.40
2023-05-03T03:13:31.629Z,48.57
2023-05-03T03:14:55.322Z,48.57
2023-05-03T03:16:16.887Z,48.70
2023-05-03T03:17:40.412Z,48.84
2023-05-03T03:19:08.921Z,48.98
2023-05-03T03:20:31.886Z,48.98
2023-05-03T03:21:53.403Z,49.08
2023-05-03T03:23:16.069Z,49.21
2023-05-03T03:24:39.027Z,49.36
2023-05-03T03:26:02.264Z,49.34
2023-05-03T03:27:28.190Z,49.37
2023-05-03T03:28:53.979Z,49.53
2023-05-03T03:30:21.283Z,49.50
2023-05-03T03:31:53.942Z,49.75
2023-05-03T03:33:15.803Z,49.52
2023-05-03T03:34:39.256Z,49.73
2023-05-03T03:36:00.785Z,49.59
2023-05-03T03:37:28.143Z,49.72
2023-05-03T03:38:50.927Z,49.64
2023-05-03T03:40:13.600Z,49.67
2023-05-03T03:41:37.560Z,49.54
2023-05-03T03:43:01.489Z,49.37
2023-05-03T03:44:26.191Z,49.66
2023-05-03T03:45:49.596Z,49.45
2023-05-03T03:47:13.443Z,49.53
2023-05-03T03:48:34.854Z,49.41
2023-05-03T03:49:57.346Z,49.33
2023-05-03T03:51:20.135Z,49.38
2023-05-03T03:52:42.786Z,49.55
2023-05-03T03:54:05.117Z,49.28
2023-05-03T03:55:31.569Z,49.22
2023-05-03T03:57:10.994Z,49.07
2023-05-03T03:58:36.165Z,49.12
2023-05-03T04:00:02.716Z,49.00
2023-05-03T04:01:37.318Z,49.01
2023-05-03T04:03:00.636Z,48.97
2023-05-03T04:04:26.892Z,49.16
2023-05-03T04:05:51.513Z,49.12
2023-05-03T04:07:18.861Z,48.98
2023-05-03T04:08:43.801Z,48.94
2023-05-03T04:10:41.296Z,49.02
2023-05-03T04:12:04.594Z,48.93
2023-05-03T04:13:31.138Z,49.05
2023-05-03T04:14:54.347Z,49.31
2023-05-03T04:16:19.276Z,49.04
2023-05-03T04:17:40.985Z,48.98
2023-05-03T04:19:08.624Z,48.90
2023-05-03T04:20:35.382Z,49.15
2023-05-03T04:21:59.137Z,49.10
2023-05-03T04:23:24.908Z,49.26
2023-05-03T04:24:48.216Z,49.44
2023-05-03T04:26:20.334Z,49.18
2023-05-03T04:27:51.746Z,49.19
2023-05-03T04:29:14.751Z,49.08
2023-05-03T04:30:39.591Z,49.29
2023-05-03T04:32:04.380Z,49.30
2023-05-03T04:33:27.528Z,49.20
2023-05-03T04:34:53.954Z,49.20
2023-05-03T04:36:19.069Z,49.11
2023-05-03T04:37:43.623Z,49.20
2023-05-03T04:39:11.704Z,49.16
2023-05-03T04:40:35.091Z,49.18
2023-05-03T04:42:09.339Z,49.02
2023-05-03T04:43:33.184Z,49.11
2023-05-03T04:44:56.150Z,48.97
2023-05-03T04:46:18.771Z,49.11
2023-05-03T04:47:43.354Z,48.94
2023-05-03T04:49:05.879Z,48.96
2023-05-03T04:50:31.406Z,48.97
2023-05-03T04:51:55.196Z,48.97
2023-05-03T04:53:20.100Z,48.75
2023-05-03T04:54:54.625Z,48.65
2023-05-03T04:56:17.681Z,48.38
2023-05-03T04:57:39.797Z,48.50
2023-05-03T04:59:04.620Z,48.00
2023-05-03T05:00:28.023Z,47.86
2023-05-03T05:01:58.744Z,47.68
2023-05-03T05:03:22.495Z,47.60
2023-05-03T05:04:45.889Z,47.35
2023-05-03T05:06:13.636Z,47.01
2023-05-03T05:07:46.837Z,46.87
2023-05-03T05:09:09.524Z,46.60
2023-05-03T05:14:34.816Z,45.92
2023-05-03T05:16:00.719Z,45.52
2023-05-03T05:17:23.408Z,45.20
2023-05-03T05:18:48.563Z,44.88
2023-05-03T05:20:13.706Z,44.63
2023-05-03T05:21:45.272Z,44.61
2023-05-03T05:23:08.045Z,44.41
2023-05-03T05:24:54.344Z,44.08
2023-05-03T05:26:18.675Z,44.02
2023-05-03T05:27:41.778Z,43.55
2023-05-03T05:29:07.069Z,43.27
2023-05-03T05:30:30.166Z,43.05
2023-05-03T05:32:08.213Z,42.89
2023-05-03T05:33:31.768Z,42.57
2023-05-03T05:34:56.945Z,42.50
2023-05-03T05:36:29.322Z,41.86
2023-05-03T05:37:51.571Z,41.46
2023-05-03T05:39:29.528Z,41.37
2023-05-03T05:40:52.226Z,41.27
2023-05-03T05:42:17.907Z,40.92
2023-05-03T05:43:41.061Z,40.99
2023-05-03T05:45:03.990Z,40.87
2023-05-03T05:47:18.545Z,40.86
2023-05-03T05:48:43.710Z,40.59
2023-05-03T05:50:18.522Z,40.23
2023-05-03T05:51:48.363Z,40.05
2023-05-03T05:53:11.118Z,39.75
2023-05-03T05:54:37.934Z,39.41
2023-05-03T05:56:05.478Z,39.24
2023-05-03T05:57:29.206Z,38.94
2023-05-03T05:58:51.829Z,38.76
2023-05-03T06:00:27.656Z,38.35
2023-05-03T06:02:41.529Z,38.46
2023-05-03T06:04:09.375Z,38.25
2023-05-03T06:05:34.294Z,38.16
2023-05-03T06:06:57.088Z,37.90
2023-05-03T06:08:27.994Z,37.78
2023-05-03T06:09:52.797Z,37.33
2023-05-03T06:11:20.215Z,37.14
2023-05-03T06:12:43.142Z,36.92
2023-05-03T06:14:11.147Z,36.66
2023-05-03T06:15:39.022Z,36.69
2023-05-03T06:17:09.160Z,36.53
2023-05-03T06:18:39.958Z,36.27
2023-05-03T06:20:05.052Z,36.27
2023-05-03T06:21:30.467Z,35.86
2023-05-03T06:22:52.732Z,35.94
2023-05-03T06:24:21.348Z,35.80
2023-05-03T06:25:55.486Z,35.93
2023-05-03T06:27:18.855Z,35.86
2023-05-03T06:28:43.308Z,35.84
2023-05-03T06:30:08.866Z,35.66
2023-05-03T06:31:34.418Z,35.66
2023-05-03T06:32:59.470Z,35.39
2023-05-03T06:34:23.908Z,35.62
2023-05-03T06:35:59.405Z,35.28
2023-05-03T06:37:26.379Z,35.23
2023-05-03T06:38:50.472Z,35.24
2023-05-03T06:40:13.681Z,35.33
2023-05-03T06:41:39.092Z,35.13
2023-05-03T06:43:01.997Z,35.24
2023-05-03T06:44:36.161Z,35.11
2023-05-03T06:45:58.749Z,35.36
2023-05-03T06:47:24.302Z,35.18
2023-05-03T06:51:07.709Z,35.20
2023-05-03T06:52:33.216Z,35.26
2023-05-03T06:53:56.437Z,35.09
2023-05-03T06:55:19.134Z,34.89
2023-05-03T06:57:10.861Z,34.87
2023-05-03T06:58:51.805Z,34.73
2023-05-03T07:00:16.294Z,34.37
2023-05-03T07:01:40.440Z,34.08
2023-05-03T07:03:05.259Z,33.91
2023-05-03T07:04:39.800Z,33.73
2023-05-03T07:06:02.533Z,33.48
2023-05-03T07:07:26.130Z,33.30
2023-05-03T07:08:52.698Z,33.13
2023-05-03T07:10:31.596Z,32.88
2023-05-03T07:11:54.567Z,32.64
2023-05-03T07:13:24.772Z,32.33
2023-05-03T07:14:47.738Z,32.18
2023-05-03T07:16:11.942Z,31.74
2023-05-03T07:17:35.292Z,31.80
2023-05-03T07:19:00.400Z,31.43
2023-05-03T07:20:53.947Z,31.47
2023-05-03T07:22:20.994Z,31.16
2023-05-03T07:23:53.861Z,30.86
2023-05-03T07:25:20.365Z,30.19
2023-05-03T07:26:50.689Z,29.61
2023-05-03T07:28:13.088Z,29.27
2023-05-03T07:29:35.469Z,28.84
2023-05-03T07:30:58.743Z,28.40
2023-05-03T07:32:29.023Z,28.29
2023-05-03T07:33:51.879Z,27.92
2023-05-03T07:35:15.029Z,27.04
2023-05-03T07:36:37.407Z,27.15
2023-05-03T07:38:03.089Z,26.42
2023-05-03T07:39:38.125Z,26.26
2023-05-03T07:41:00.848Z,25.53
2023-05-03T07:42:23.748Z,25.12
2023-05-03T07:43:53.632Z,25.29
2023-05-03T07:45:16.793Z,25.00
2023-05-03T07:46:50.277Z,24.23
2023-05-03T07:48:17.764Z,24.04
2023-05-03T07:49:45.704Z,23.98
2023-05-03T07:51:08.328Z,24.45
2023-05-03T07:52:40.041Z,24.07
2023-05-03T07:54:22.150Z,23.26
2023-05-03T07:55:48.111Z,22.90
2023-05-03T07:57:12.221Z,22.69
2023-05-03T07:58:43.658Z,22.23
2023-05-03T08:00:19.859Z,21.85
2023-05-03T08:01:51.024Z,21.58
2023-05-03T08:03:16.159Z,21.54
2023-05-03T08:04:39.663Z,20.83
2023-05-03T08:06:04.779Z,20.59
2023-05-03T08:07:33.318Z,20.12
2023-05-03T08:09:00.833Z,19.82
2023-05-03T08:10:26.593Z,18.79
2023-05-03T08:12:12.885Z,15.72
2023-05-03T08:15:26.109Z,12.91
2023-05-03T08:16:48.245Z,11.92
2023-05-03T08:18:22.305Z,11.05
2023-05-03T08:19:50.097Z,11.21
2023-05-03T08:21:13.770Z,12.37
2023-05-03T08:22:45.572Z,12.64
2023-05-03T08:24:10.479Z,12.78
2023-05-03T08:25:37.582Z,12.93
2023-05-03T08:27:01.692Z,13.21
2023-05-03T08:28:26.350Z,13.78
2023-05-03T08:30:25.495Z,14.19
2023-05-03T08:31:49.364Z,14.99
2023-05-03T08:33:12.253Z,14.79
2023-05-03T08:34:38.183Z,12.45
2023-05-03T08:36:00.644Z,11.34
2023-05-03T08:38:20.238Z,11.92
2023-05-03T08:39:42.861Z,12.29
2023-05-03T08:41:14.951Z,12.52
2023-05-03T08:43:01.053Z,11.26
2023-05-03T08:44:25.746Z,11.10
2023-05-03T08:45:49.998Z,9.90
2023-05-03T08:48:07.607Z,8.84
2023-05-03T08:50:08.302Z,7.51
2023-05-03T08:51:32.122Z,6.99
2023-05-03T08:53:16.158Z,5.53
2023-05-03T08:54:49.223Z,5.30
2023-05-03T08:56:20.519Z,6.22
2023-05-03T08:57:45.150Z,6.62
2023-05-03T08:59:14.885Z,7.13
2023-05-03T09:02:26.141Z,7.50
2023-05-03T09:04:05.204Z,8.44
2023-05-03T09:07:45.172Z,9.98
2023-05-03T09:09:47.317Z,10.05
2023-05-03T09:13:04.069Z,11.28
2023-05-03T09:14:27.311Z,11.35
2023-05-03T09:16:04.918Z,11.08
2023-05-03T09:18:56.127Z,10.05
2023-05-03T09:20:18.645Z,9.42
2023-05-03T09:21:53.566Z,7.74
2023-05-03T09:25:48.577Z,5.98
2023-05-03T09:27:22.761Z,5.78
2023-05-03T09:28:56.819Z,4.99
2023-05-03T09:33:32.764Z,3.70
2023-05-03T09:35:19.207Z,3.55
2023-05-03T09:44:10.925Z,2.34
2023-05-03T09:46:30.477Z,2.08
2023-05-03T10:03:36.861Z,4.48
2023-05-03T10:05:28.292Z,5.44
2023-05-03T10:07:19.713Z,6.50
2023-05-03T10:08:53.058Z,7.31
2023-05-03T10:11:07.546Z,6.42
2023-05-03T10:16:57.966Z,4.55
2023-05-03T10:19:48.695Z,4.98
2023-05-03T10:24:15.377Z,5.01
2023-05-03T10:26:37.169Z,4.24
2023-05-03T10:28:15.959Z,4.14
2023-05-03T10:30:09.554Z,3.82
2023-05-03T10:31:51.130Z,4.16
2023-05-03T10:33:40.213Z,4.48
2023-05-03T10:35:06.424Z,5.25
2023-05-03T10:36:59.098Z,5.85
2023-05-03T10:38:53.081Z,6.61
2023-05-03T10:41:07.412Z,7.51
2023-05-03T10:43:03.384Z,8.77
2023-05-03T10:44:59.491Z,9.61
2023-05-03T10:46:52.882Z,10.09
2023-05-03T10:48:23.853Z,10.82
2023-05-03T10:49:48.317Z,11.08
2023-05-03T10:51:41.484Z,11.48
2023-05-03T10:53:14.633Z,12.17
2023-05-03T10:55:01.018Z,12.39
2023-05-03T10:56:28.451Z,13.20
2023-05-03T10:57:59.114Z,13.55
2023-05-03T10:59:47.923Z,13.80
2023-05-03T11:01:33.727Z,14.64
2023-05-03T11:03:56.226Z,15.33
2023-05-03T11:05:24.028Z,15.75
2023-05-03T11:07:11.348Z,16.01
2023-05-03T11:09:47.048Z,16.51
2023-05-03T11:12:07.561Z,16.53
2023-05-03T11:13:39.993Z,16.87
2023-05-03T11:16:09.814Z,17.30
2023-05-03T11:17:45.995Z,17.26
2023-05-03T11:20:11.913Z,17.53
2023-05-03T11:21:37.846Z,18.04
2023-05-03T11:23:02.879Z,18.01
2023-05-03T11:24:27.566Z,18.17
2023-05-03T11:25:50.759Z,18.27
2023-05-03T11:27:16.908Z,18.17
2023-05-03T11:28:58.279Z,18.47
2023-05-03T11:30:28.117Z,18.32
2023-05-03T11:31:53.096Z,18.53
2023-05-03T11:33:16.044Z,19.00
2023-05-03T11:34:42.914Z,19.13
2023-05-03T11:38:30.360Z,19.39
2023-05-03T11:39:53.151Z,19.29
2023-05-03T11:41:16.934Z,19.73
2023-05-03T11:42:52.547Z,19.99
2023-05-03T11:44:17.724Z,19.94
2023-05-03T11:45:44.440Z,20.06
2023-05-03T11:47:09.641Z,20.32
2023-05-03T11:48:35.257Z,20.43
2023-05-03T11:50:02.416Z,20.67
2023-05-03T11:51:54.410Z,20.63
2023-05-03T11:53:20.896Z,20.76
2023-05-03T11:54:49.442Z,20.79
2023-05-03T11:57:05.577Z,20.59
2023-05-03T11:58:28.104Z,20.78
2023-05-03T11:59:50.539Z,21.10
2023-05-03T12:01:13.242Z,21.05
2023-05-03T12:03:40.943Z,21.50
2023-05-03T12:05:14.371Z,21.44
2023-05-03T12:06:38.886Z,21.54
2023-05-03T12:08:05.591Z,21.54
2023-05-03T12:09:39.899Z,21.68
2023-05-03T12:11:11.103Z,21.80
2023-05-03T12:12:50.081Z,21.70
2023-05-03T12:14:25.076Z,21.63
2023-05-03T12:18:01.120Z,21.33
2023-05-03T12:19:32.792Z,21.29
2023-05-03T12:22:41.983Z,21.73
2023-05-03T12:24:10.821Z,21.93
2023-05-03T12:26:15.112Z,21.90
2023-05-03T12:27:49.976Z,22.04
2023-05-03T12:29:35.129Z,21.94
2023-05-03T12:31:23.841Z,22.14
2023-05-03T12:32:46.934Z,22.32
2023-05-03T12:34:31.746Z,22.51
2023-05-03T12:35:54.141Z,22.87
2023-05-03T12:37:27.070Z,23.01
2023-05-03T12:38:56.200Z,23.41
2023-05-03T12:40:34.271Z,23.48
2023-05-03T12:43:26.665Z,23.86
2023-05-03T12:45:03.158Z,24.02
2023-05-03T12:46:34.453Z,23.97
2023-05-03T12:48:05.622Z,24.31
2023-05-03T12:49:30.904Z,24.44
2023-05-03T12:51:13.362Z,24.40
2023-05-03T12:52:52.418Z,24.43
2023-05-03T12:54:19.062Z,24.47
2023-05-03T12:55:43.110Z,24.26
2023-05-03T12:57:15.600Z,24.38
2023-05-03T13:04:00.931Z,24.93
2023-05-03T13:05:35.836Z,24.84
2023-05-03T13:07:01.069Z,25.14
2023-05-03T13:08:33.548Z,25.47
2023-05-03T13:11:22.402Z,25.39
2023-05-03T13:12:47.543Z,25.47
2023-05-03T13:14:14.670Z,25.40
2023-05-03T13:15:38.139Z,25.35
2023-05-03T13:17:03.357Z,25.10
2023-05-03T13:22:01.139Z,24.77
2023-05-03T13:23:25.885Z,24.50
2023-05-03T13:24:58.485Z,24.77
2023-05-03T13:26:21.942Z,24.71
2023-05-03T13:28:13.238Z,24.70
2023-05-03T13:29:47.570Z,24.68
2023-05-03T13:31:15.281Z,24.84
2023-05-03T13:32:37.675Z,24.71
2023-05-03T13:34:12.177Z,24.66
2023-05-03T13:35:52.375Z,24.51
2023-05-03T13:37:44.851Z,24.44
2023-05-03T13:39:27.808Z,24.61
2023-05-03T13:42:01.058Z,24.74
2023-05-03T13:43:48.448Z,24.64
2023-05-03T13:45:37.264Z,24.51
2023-05-03T13:46:59.722Z,24.59
2023-05-03T13:48:38.111Z,24.76
2023-05-03T13:50:01.592Z,24.69
2023-05-03T13:55:53.622Z,24.92
2023-05-03T13:57:24.934Z,25.02
2023-05-03T14:00:01.510Z,24.96
2023-05-03T14:01:28.711Z,25.23
2023-05-03T14:02:58.038Z,25.33
2023-05-03T14:04:24.094Z,25.37
2023-05-03T14:05:53.983Z,25.34
2023-05-03T14:07:28.360Z,25.67
2023-05-03T14:09:20.618Z,26.05
2023-05-03T14:11:07.027Z,26.15
2023-05-03T14:12:40.213Z,26.28
2023-05-03T14:15:14.626Z,26.35
2023-05-03T14:16:48.618Z,26.20
2023-05-03T14:18:34.623Z,26.30
2023-05-03T14:21:12.414Z,26.47
2023-05-03T14:22:38.802Z,26.60
2023-05-03T14:24:09.226Z,26.84
2023-05-03T14:25:47.346Z,27.19
2023-05-03T14:27:17.565Z,26.89
2023-05-03T14:28:51.913Z,27.09
2023-05-03T14:30:16.398Z,27.09
2023-05-03T14:31:42.680Z,27.23
2023-05-03T14:33:07.895Z,27.39
2023-05-03T14:34:38.702Z,27.54
2023-05-03T14:36:05.669Z,27.53
2023-05-03T14:37:38.012Z,27.30
2023-05-03T14:39:02.353Z,27.27
2023-05-03T14:40:25.415Z,27.41
2023-05-03T14:41:51.432Z,27.48
2023-05-03T14:43:19.975Z,27.53
2023-05-03T14:44:46.120Z,27.45
2023-05-03T14:46:14.089Z,27.55
2023-05-03T14:47:59.024Z,27.60
2023-05-03T14:49:59.261Z,27.54
2023-05-03T14:51:23.861Z,27.59
2023-05-03T14:52:52.423Z,27.93
2023-05-03T14:54:16.261Z,27.89
2023-05-03T14:55:39.283Z,27.93
2023-05-03T14:57:05.178Z,28.07
2023-05-03T14:58:28.020Z,27.87
2023-05-03T14:59:51.148Z,28.03
2023-05-03T15:01:22.228Z,28.13
2023-05-03T15:02:47.021Z,28.01
2023-05-03T15:04:12.042Z,28.18
2023-05-03T15:05:46.193Z,27.99
2023-05-03T15:07:14.363Z,28.21
2023-05-03T15:08:40.604Z,28.19
2023-05-03T15:10:10.776Z,28.29
2023-05-03T15:11:33.697Z,28.37
2023-05-03T15:12:56.343Z,28.48
2023-05-03T15:14:20.698Z,28.34
2023-05-03T15:15:44.507Z,28.57
2023-05-03T15:17:06.799Z,28.34
2023-05-03T15:18:29.327Z,28.41
2023-05-03T15:19:54.184Z,28.67
2023-05-03T15:21:27.656Z,28.58
2023-05-03T15:23:04.672Z,28.34
2023-05-03T15:24:41.756Z,28.60
2023-05-03T15:26:15.280Z,28.35
2023-05-03T15:27:43.626Z,28.51
2023-05-03T15:29:08.429Z,28.44
2023-05-03T15:30:31.512Z,28.30
2023-05-03T15:31:59.753Z,28.44
2023-05-03T15:35:29.858Z,28.51
2023-05-03T15:36:56.736Z,28.36
2023-05-03T15:38:19.641Z,28.33
2023-05-03T15:39:41.988Z,28.41
2023-05-03T15:41:13.025Z,28.52
2023-05-03T15:43:00.976Z,28.52
2023-05-03T15:44:23.616Z,28.50
2023-05-03T15:45:47.434Z,28.66
2023-05-03T15:47:16.912Z,28.48
2023-05-03T15:48:39.690Z,28.54
2023-05-03T15:50:02.551Z,28.64
2023-05-03T15:51:37.951Z,28.57
2023-05-03T15:53:04.245Z,28.60
2023-05-03T15:54:28.598Z,28.70
2023-05-03T15:56:04.050Z,28.59
2023-05-03T15:57:37.626Z,28.52
2023-05-03T15:59:00.127Z,28.57
2023-05-03T16:00:35.955Z,28.48
2023-05-03T16:02:23.965Z,28.35
2023-05-03T16:03:48.106Z,28.35
2023-05-03T16:05:13.231Z,28.44
2023-05-03T16:06:36.317Z,28.39
2023-05-03T16:07:59.418Z,28.22
2023-05-03T16:09:26.164Z,28.24
2023-05-03T16:10:48.809Z,28.39
2023-05-03T16:12:11.414Z,28.31
2023-05-03T16:13:36.391Z,28.48
2023-05-03T16:15:01.175Z,28.55
2023-05-03T16:16:24.017Z,28.82
2023-05-03T16:17:49.879Z,28.57
2023-05-03T16:19:12.737Z,28.67
2023-05-03T16:20:35.296Z,28.80
2023-05-03T16:22:01.420Z,28.72
2023-05-03T16:23:43.231Z,28.67
2023-05-03T16:25:13.738Z,28.97
2023-05-03T16:29:25.694Z,28.96
2023-05-03T16:31:14.316Z,29.06
2023-05-03T16:32:38.971Z,29.20
2023-05-03T16:34:21.689Z,29.21
2023-05-03T16:36:45.776Z,29.14
2023-05-03T16:39:57.374Z,29.06
2023-05-03T16:41:26.163Z,29.06
2023-05-03T16:42:55.276Z,28.96
2023-05-03T16:44:28.801Z,29.24
2023-05-03T16:46:05.171Z,29.48
2023-05-03T16:47:30.366Z,29.22
2023-05-03T16:48:55.693Z,29.36
2023-05-03T16:50:40.351Z,29.51
2023-05-03T16:52:13.916Z,29.31
2023-05-03T16:53:37.333Z,29.38
2023-05-03T16:55:01.060Z,29.47
2023-05-03T16:56:31.761Z,29.43
2023-05-03T16:58:05.570Z,29.65
2023-05-03T16:59:34.063Z,29.49
2023-05-03T17:01:39.528Z,29.59
2023-05-03T17:03:09.765Z,29.42
2023-05-03T17:07:12.954Z,29.61
2023-05-03T17:08:36.259Z,29.52
2023-05-03T17:10:10.864Z,29.65
2023-05-03T17:11:40.576Z,29.62
2023-05-03T17:13:04.156Z,29.45
2023-05-03T17:14:28.268Z,29.62
2023-05-03T17:15:59.401Z,29.85
2023-05-03T17:17:32.013Z,29.92
2023-05-03T17:18:57.953Z,29.88
2023-05-03T17:20:28.305Z,29.90
2023-05-03T17:21:55.746Z,29.94
2023-05-03T17:23:24.270Z,30.14
2023-05-03T17:27:51.551Z,30.16
2023-05-03T17:29:20.293Z,30.31
2023-05-03T17:31:18.270Z,30.43
2023-05-03T17:32:43.635Z,30.50
2023-05-03T17:34:17.791Z,30.41
2023-05-03T17:35:43.116Z,30.67
2023-05-03T17:37:16.751Z,30.77
2023-05-03T17:39:41.460Z,30.65
2023-05-03T17:41:10.863Z,30.89
2023-05-03T17:42:37.935Z,30.94
2023-05-03T17:44:13.480Z,30.95
2023-05-03T17:45:47.568Z,31.04
2023-05-03T17:47:31.870Z,30.98
2023-05-03T17:49:00.130Z,31.05
2023-05-03T17:50:29.506Z,31.13
2023-05-03T17:51:59.191Z,31.15
2023-05-03T17:53:23.354Z,31.23
2023-05-03T17:54:48.830Z,31.41
2023-05-03T17:56:20.323Z,31.38
2023-05-03T17:57:48.493Z,31.46
2023-05-03T17:59:47.768Z,31.45
2023-05-03T18:01:37.907Z,31.37
2023-05-03T18:03:00.622Z,31.38
2023-05-03T18:04:23.404Z,31.50
2023-05-03T18:05:46.191Z,31.65
2023-05-03T18:07:10.696Z,31.75
2023-05-03T18:08:35.461Z,31.72
2023-05-03T18:09:59.871Z,31.79
2023-05-03T18:11:28.286Z,31.84
2023-05-03T18:13:07.785Z,31.89
2023-05-03T18:14:41.189Z,31.77
2023-05-03T18:16:11.963Z,32.09
2023-05-03T18:17:33.356Z,31.98
2023-05-03T18:19:12.198Z,32.24
2023-05-03T18:20:49.141Z,32.27
2023-05-03T18:22:19.922Z,32.38
2023-05-03T18:23:52.406Z,32.44
2023-05-03T18:25:20.274Z,32.42
2023-05-03T18:26:49.943Z,32.62
2023-05-03T18:28:17.542Z,32.59
2023-05-03T18:33:04.017Z,32.53
2023-05-03T18:34:32.267Z,33.03
2023-05-03T18:36:28.415Z,32.82
2023-05-03T18:38:09.017Z,32.90
2023-05-03T18:39:35.448Z,33.13
2023-05-03T18:42:04.942Z,33.10
2023-05-03T18:44:09.676Z,33.30
2023-05-03T18:45:42.227Z,33.60
2023-05-03T18:47:38.812Z,33.60
2023-05-03T18:49:55.949Z,33.71
2023-05-03T18:54:11.248Z,33.96
2023-05-03T18:57:37.680Z,34.00
2023-05-03T18:59:14.009Z,34.07
2023-05-03T19:00:42.231Z,34.21
2023-05-03T19:02:14.815Z,34.24
2023-05-03T19:04:03.001Z,34.42
2023-05-03T19:05:49.797Z,34.25
2023-05-03T19:09:21.472Z,34.58
2023-05-03T19:10:53.045Z,34.92
2023-05-03T19:12:44.330Z,34.85
2023-05-03T19:14:48.856Z,34.89
2023-05-03T19:16:11.979Z,34.98
2023-05-03T19:17:35.052Z,35.15
2023-05-03T19:18:59.149Z,35.24
2023-05-03T19:20:45.088Z,35.23
2023-05-03T19:22:15.766Z,35.38
2023-05-03T19:23:47.490Z,35.45
2023-05-03T19:25:53.506Z,35.66
2023-05-03T19:28:08.270Z,35.42
2023-05-03T19:30:20.180Z,35.81
2023-05-03T19:32:06.881Z,35.68
2023-05-03T19:33:49.873Z,35.70
2023-05-03T19:35:58.562Z,35.79
2023-05-03T19:37:33.289Z,35.83
2023-05-03T19:38:59.237Z,35.89
2023-05-03T19:40:31.665Z,36.18
2023-05-03T19:42:15.529Z,36.13
2023-05-03T19:44:00.154Z,36.31
2023-05-03T19:45:36.811Z,36.27
2023-05-03T19:47:02.203Z,36.41
2023-05-03T19:48:30.600Z,36.49
2023-05-03T19:49:59.072Z,36.56
2023-05-03T19:51:24.330Z,36.66
2023-05-03T19:53:28.687Z,36.69
2023-05-03T19:56:03.831Z,36.73
2023-05-03T19:57:36.812Z,36.82
2023-05-03T19:59:15.698Z,36.85
2023-05-03T20:00:46.469Z,36.95
2023-05-03T20:02:24.860Z,37.02
2023-05-03T20:04:01.754Z,36.97
2023-05-03T20:05:43.341Z,37.11
2023-05-03T20:07:12.794Z,37.15
2023-05-03T20:08:54.467Z,37.36
2023-05-03T20:10:22.031Z,37.24
2023-05-03T20:11:47.240Z,37.09
2023-05-03T20:13:16.968Z,37.38
2023-05-03T20:14:50.711Z,37.18
2023-05-03T20:16:19.331Z,37.44
2023-05-03T20:17:53.248Z,37.45
2023-05-03T20:19:33.108Z,37.54
2023-05-03T20:22:23.762Z,37.75
2023-05-03T20:23:58.853Z,37.66
2023-05-03T20:25:23.314Z,37.49
2023-05-03T20:26:45.834Z,37.60
2023-05-03T20:28:11.576Z,37.73
2023-05-03T20:30:19.489Z,37.77
2023-05-03T20:31:48.330Z,37.66
2023-05-03T20:33:14.361Z,37.86
2023-05-03T20:34:37.109Z,37.76
2023-05-03T20:36:00.497Z,37.96
2023-05-03T20:40:03.136Z,37.91
2023-05-03T20:41:27.488Z,37.95
2023-05-03T20:43:05.799Z,38.11
2023-05-03T20:44:41.492Z,38.10
2023-05-03T20:46:07.697Z,38.12
2023-05-03T20:47:32.833Z,38.17
2023-05-03T20:48:57.716Z,38.11
2023-05-03T20:54:16.116Z,38.26
2023-05-03T20:55:58.969Z,38.34
2023-05-03T20:57:38.472Z,38.56
2023-05-03T20:59:13.534Z,38.46
2023-05-03T21:00:39.035Z,38.79
2023-05-03T21:04:38.531Z,38.75
2023-05-03T21:08:05.298Z,38.73
2023-05-03T21:09:31.476Z,38.86
2023-05-03T21:11:25.295Z,38.97
2023-05-03T21:15:12.303Z,39.02
2023-05-03T21:16:47.002Z,39.23
2023-05-03T21:18:23.184Z,39.14
2023-05-03T21:19:56.128Z,39.21
2023-05-03T21:21:43.093Z,39.48
2023-05-03T21:23:09.479Z,39.49
2023-05-03T21:24:54.753Z,39.54
2023-05-03T21:26:33.893Z,39.73
2023-05-03T21:28:06.047Z,39.82
2023-05-03T21:29:36.044Z,39.86
2023-05-03T21:31:11.833Z,40.10
2023-05-03T21:34:30.305Z,40.03
2023-05-03T21:36:01.928Z,40.22
2023-05-03T21:37:34.423Z,40.43